createdAt,value
2019-01-14T00:04:31.965Z,9.77
2019-01-14T00:14:33.239Z,11.87
2019-01-14T00:24:34.566Z,9.23
2019-01-14T00:34:35.936Z,10.67
2019-01-14T00:44:37.462Z,13.87
2019-01-14T00:54:38.990Z,10.17
2019-01-14T01:04:40.497Z,12.40
2019-01-14T01:14:41.905Z,12.73
2019-01-14T01:24:43.390Z,11.37
2019-01-14T01:34:44.789Z,12.83
2019-01-14T01:44:46.156Z,10.13
2019-01-14T01:54:47.657Z,10.43
2019-01-14T04:28:46.677Z,3.53
2019-01-14T05:31:21.228Z,0.73
2019-01-14T05:41:22.840Z,0.73
2019-01-14T09:17:05.127Z,0.30
2019-01-14T15:16:40.944Z,3.70
2019-01-14T16:29:03.391Z,1.00
2019-01-14T16:49:12.618Z,1.13
2019-01-14T18:00:45.092Z,1.87
2019-01-14T18:10:45.705Z,1.23
2019-01-14T18:20:47.042Z,3.10
2019-01-14T20:02:02.789Z,1.97
2019-01-14T20:32:17.171Z,4.03
2019-01-14T20:42:18.452Z,2.07
2019-01-14T20:52:19.733Z,1.20
2019-01-14T21:02:24.298Z,6.77
2019-01-14T21:12:27.613Z,2.53
2019-01-14T21:22:33.627Z,1.77
2019-01-14T21:32:35.641Z,3.53
2019-01-14T21:42:37.659Z,0.97
2019-01-14T21:52:38.930Z,1.60
2019-01-14T22:02:40.201Z,5.80
2019-01-14T22:12:41.470Z,1.30
2019-01-14T22:22:42.856Z,2.60
2019-01-14T22:32:44.117Z,2.10
2019-01-14T22:42:45.428Z,2.17
2019-01-14T22:52:47.459Z,2.67
2019-01-14T23:02:48.693Z,3.37
2019-01-14T23:12:49.964Z,3.47
2019-01-14T23:22:51.232Z,2.93
2019-01-14T23:32:52.481Z,3.57
2019-01-14T23:42:53.725Z,3.17
2019-01-14T23:52:55.765Z,3.90
